Time;durP1;ratioP1;P1;durP2;ratioP2;P2;SDS_P1;SDS_P2;PMS_P1;PMS_P2;Temp;Humidity;BMP_temperature;BMP_pressure;BME280_temperature;BME280_humidity;BME280_pressure;Samples;Min_cycle;Max_cycle;Signal;HPM_P1;HPM_P2
2023/03/08 00:00:16;;;;;;;27.92;11.25;;;1.30;99.90;;;;;;5072557;28;20012;-74
2023/03/08 00:02:41;;;;;;;33.45;11.07;;;1.30;99.90;;;;;;5073579;28;20553;-76
2023/03/08 00:05:08;;;;;;;27.30;10.73;;;1.30;99.90;;;;;;5072646;28;20104;-75
2023/03/08 00:07:34;;;;;;;25.83;10.77;;;1.30;99.90;;;;;;5071384;28;20048;-76
2023/03/08 00:09:59;;;;;;;25.25;9.90;;;1.20;99.90;;;;;;5072540;28;20059;-76
2023/03/08 00:12:25;;;;;;;29.98;11.20;;;1.20;99.90;;;;;;5073307;28;20131;-76
2023/03/08 00:14:51;;;;;;;35.55;10.35;;;1.20;99.90;;;;;;5072593;28;20024;-74
2023/03/08 00:17:17;;;;;;;27.23;10.15;;;1.20;99.90;;;;;;5072002;28;20078;-75
2023/03/08 00:19:43;;;;;;;36.55;10.52;;;1.20;99.90;;;;;;5072694;28;20099;-75
2023/03/08 00:22:10;;;;;;;27.30;10.18;;;1.20;99.90;;;;;;5073524;28;20048;-74
2023/03/08 00:24:36;;;;;;;28.98;10.70;;;1.30;99.90;;;;;;5072846;28;20047;-75
2023/03/08 00:27:01;;;;;;;30.38;10.88;;;1.30;99.90;;;;;;5073233;28;20017;-75
2023/03/08 00:29:27;;;;;;;29.80;11.00;;;1.30;99.90;;;;;;5071673;28;20036;-75
2023/03/08 00:31:53;;;;;;;26.60;10.15;;;1.30;99.90;;;;;;5074280;28;20032;-74
2023/03/08 00:34:18;;;;;;;34.97;11.20;;;1.30;99.90;;;;;;5074480;28;20024;-75
2023/03/08 00:36:44;;;;;;;26.17;10.88;;;1.40;99.90;;;;;;5074237;28;20020;-75
2023/03/08 00:39:10;;;;;;;31.83;11.27;;;1.40;99.90;;;;;;5073540;28;20037;-75
2023/03/08 00:41:37;;;;;;;36.85;10.68;;;1.40;99.90;;;;;;5072564;28;20021;-75
2023/03/08 00:44:03;;;;;;;35.15;10.20;;;1.50;99.90;;;;;;5072550;28;20035;-76
2023/03/08 00:46:28;;;;;;;35.78;11.85;;;1.60;99.90;;;;;;5073296;28;20024;-75
2023/03/08 00:48:54;;;;;;;36.00;10.80;;;1.60;99.90;;;;;;5071092;28;20112;-75
2023/03/08 00:51:20;;;;;;;35.55;10.95;;;1.50;99.90;;;;;;5072811;28;20099;-76
2023/03/08 00:53:46;;;;;;;36.15;10.23;;;1.50;99.90;;;;;;5070583;28;20032;-75
2023/03/08 00:56:12;;;;;;;29.92;12.32;;;1.50;99.90;;;;;;5070732;28;20051;-74
2023/03/08 00:58:39;;;;;;;25.60;10.10;;;1.60;99.90;;;;;;5071323;28;20060;-76
2023/03/08 01:01:07;;;;;;;39.63;11.43;;;1.60;99.90;;;;;;5071561;28;20463;-76
2023/03/08 01:03:33;;;;;;;38.83;10.40;;;1.70;99.90;;;;;;5072357;28;20017;-76
2023/03/08 01:06:05;;;;;;;30.35;10.05;;;1.60;99.90;;;;;;5070530;28;20574;-75
2023/03/08 01:08:31;;;;;;;26.15;9.63;;;1.60;99.90;;;;;;5072153;28;20036;-75
2023/03/08 01:10:58;;;;;;;30.77;10.00;;;1.60;99.90;;;;;;5072661;28;20028;-75
2023/03/08 01:13:26;;;;;;;25.33;10.38;;;1.60;99.90;;;;;;5071464;28;20510;-74
2023/03/08 01:15:51;;;;;;;32.38;11.38;;;1.60;99.90;;;;;;5071868;28;20032;-75
2023/03/08 01:18:17;;;;;;;23.42;9.93;;;1.60;99.90;;;;;;5072992;28;20481;-75
2023/03/08 01:20:43;;;;;;;38.70;12.07;;;1.50;99.90;;;;;;5074593;28;20116;-77
2023/03/08 01:23:09;;;;;;;32.30;10.85;;;1.60;99.90;;;;;;5072954;28;20503;-75
2023/03/08 01:25:35;;;;;;;36.15;12.07;;;1.50;99.90;;;;;;5073925;28;20028;-75
2023/03/08 01:28:01;;;;;;;36.75;11.25;;;1.60;99.90;;;;;;5074234;28;20050;-74
2023/03/08 01:30:27;;;;;;;32.90;9.98;;;1.60;99.90;;;;;;5078678;28;20036;-75
2023/03/08 01:32:53;;;;;;;38.50;10.07;;;1.60;99.90;;;;;;5078663;28;20028;-75
2023/03/08 01:35:19;;;;;;;41.38;11.15;;;1.60;99.90;;;;;;5078412;28;20054;-75
2023/03/08 01:37:44;;;;;;;44.97;11.15;;;1.60;99.90;;;;;;5079316;28;20123;-75
2023/03/08 01:40:15;;;;;;;44.78;10.57;;;1.60;99.90;;;;;;5081677;28;20052;-76
2023/03/08 01:42:40;;;;;;;41.60;9.45;;;1.50;99.90;;;;;;5082648;28;20028;-75
2023/03/08 01:45:44;;;;;;;27.65;9.45;;;1.50;99.90;;;;;;5075661;28;20025;-75
2023/03/08 01:48:11;;;;;;;35.80;10.80;;;1.50;99.90;;;;;;5075039;28;20028;-74
2023/03/08 01:50:38;;;;;;;43.30;10.60;;;1.40;99.90;;;;;;5075717;28;20566;-75
2023/03/08 01:53:04;;;;;;;38.83;9.73;;;1.40;99.90;;;;;;5075530;28;20082;-75
2023/03/08 01:55:30;;;;;;;34.00;8.95;;;1.50;99.90;;;;;;5074155;28;20045;-75
2023/03/08 01:57:56;;;;;;;35.05;10.07;;;1.40;99.90;;;;;;5075313;28;20039;-74
2023/03/08 02:00:24;;;;;;;35.85;10.02;;;1.30;99.90;;;;;;5073368;28;20484;-75
2023/03/08 02:03:03;;;;;;;27.30;11.02;;;1.30;99.90;;;;;;5075511;28;20012;-74
2023/03/08 02:05:30;;;;;;;24.55;9.32;;;1.30;99.90;;;;;;5074095;28;20500;-76
2023/03/08 02:07:56;;;;;;;33.25;9.60;;;1.20;99.90;;;;;;5073899;28;20400;-76
2023/03/08 02:10:21;;;;;;;27.25;8.32;;;1.20;99.90;;;;;;5075715;28;20024;-75
2023/03/08 02:12:47;;;;;;;21.88;9.57;;;1.20;99.90;;;;;;5075301;28;20029;-76
2023/03/08 02:15:17;;;;;;;25.88;9.77;;;1.20;99.90;;;;;;5074990;28;20039;-75
2023/03/08 02:17:43;;;;;;;28.13;9.43;;;1.20;99.90;;;;;;5073474;28;20021;-75
2023/03/08 02:20:31;;;;;;;17.75;8.80;;;1.10;99.90;;;;;;5075987;28;20027;-74
2023/03/08 02:23:11;;;;;;;23.98;9.00;;;1.20;99.90;;;;;;5076182;28;20090;-74
2023/03/08 02:25:36;;;;;;;20.33;8.70;;;1.10;99.90;;;;;;5076062;28;20020;-75
2023/03/08 02:28:03;;;;;;;23.40;9.18;;;1.10;99.90;;;;;;5076671;28;20369;-75
2023/03/08 02:30:32;;;;;;;20.85;9.88;;;1.20;99.90;;;;;;5081003;28;20021;-75
2023/03/08 02:32:58;;;;;;;23.27;10.90;;;1.20;99.90;;;;;;5082003;28;20495;-75
2023/03/08 02:35:24;;;;;;;17.50;7.82;;;1.20;99.90;;;;;;5081105;28;20103;-75
2023/03/08 02:37:50;;;;;;;21.98;9.30;;;1.20;99.90;;;;;;5099840;22;20071;-77
2023/03/08 02:40:16;;;;;;;17.15;8.45;;;1.20;99.90;;;;;;5073837;28;20056;-77
2023/03/08 02:42:41;;;;;;;21.52;10.23;;;1.20;99.90;;;;;;5056065;28;20054;-77
2023/03/08 02:45:08;;;;;;;18.75;9.00;;;1.20;99.90;;;;;;5056048;28;20027;-78
2023/03/08 02:47:33;;;;;;;13.80;7.47;;;1.30;99.90;;;;;;5073838;28;20028;-77
2023/03/08 02:49:59;;;;;;;20.00;10.00;;;1.30;99.90;;;;;;5074245;28;20519;-77
2023/03/08 02:52:25;;;;;;;24.38;9.02;;;1.40;99.90;;;;;;5056305;28;20481;-77
2023/03/08 02:54:50;;;;;;;18.30;8.88;;;1.40;99.90;;;;;;5072584;28;20540;-78
2023/03/08 02:57:16;;;;;;;21.75;9.48;;;1.50;99.90;;;;;;5053615;28;20021;-76
2023/03/08 02:59:41;;;;;;;19.48;9.07;;;1.50;99.90;;;;;;5055953;28;20025;-78
2023/03/08 03:02:07;;;;;;;22.17;9.85;;;1.50;99.90;;;;;;5073817;28;20048;-77
2023/03/08 03:04:33;;;;;;;14.32;8.80;;;1.60;99.90;;;;;;5055565;28;20111;-78
2023/03/08 03:06:59;;;;;;;19.17;8.95;;;1.60;99.90;;;;;;5072669;28;20029;-77
2023/03/08 03:09:26;;;;;;;17.00;8.95;;;1.50;99.90;;;;;;5055221;28;20028;-77
2023/03/08 03:11:52;;;;;;;22.83;8.93;;;1.50;99.90;;;;;;5055710;28;20027;-77
2023/03/08 03:14:17;;;;;;;18.27;8.20;;;1.50;99.90;;;;;;5073749;28;20096;-77
2023/03/08 03:16:43;;;;;;;19.17;8.68;;;1.60;99.90;;;;;;5055384;28;20143;-77
2023/03/08 03:19:09;;;;;;;17.95;9.00;;;1.60;99.90;;;;;;5073062;28;20024;-77
2023/03/08 03:21:34;;;;;;;17.83;8.30;;;1.60;99.90;;;;;;5072107;28;20024;-77
2023/03/08 03:24:00;;;;;;;19.77;9.40;;;1.60;99.90;;;;;;5073560;28;20043;-77
2023/03/08 03:26:26;;;;;;;24.65;10.40;;;1.60;99.90;;;;;;5072477;28;20021;-77
2023/03/08 03:28:55;;;;;;;17.95;8.40;;;1.60;99.90;;;;;;5055152;28;20024;-77
2023/03/08 03:31:22;;;;;;;22.23;9.70;;;1.60;99.90;;;;;;5054897;28;20028;-77
2023/03/08 03:33:49;;;;;;;20.30;10.15;;;1.50;99.90;;;;;;5073270;28;20374;-77
2023/03/08 03:36:18;;;;;;;23.60;9.38;;;1.60;99.90;;;;;;5055313;28;20071;-78
2023/03/08 03:38:45;;;;;;;17.38;7.95;;;1.70;99.90;;;;;;5072738;28;20029;-77
2023/03/08 03:41:14;;;;;;;17.92;8.88;;;1.70;99.90;;;;;;5072085;28;20025;-76
2023/03/08 03:43:40;;;;;;;19.73;8.80;;;1.70;99.90;;;;;;5073102;28;20055;-77
2023/03/08 03:46:09;;;;;;;17.52;8.60;;;1.60;99.90;;;;;;5054811;28;20546;-78
2023/03/08 03:48:35;;;;;;;18.95;9.10;;;1.60;99.90;;;;;;5072588;28;20028;-77
2023/03/08 03:51:13;;;;;;;18.27;8.80;;;1.60;99.90;;;;;;5054353;28;20020;-77
2023/03/08 03:53:39;;;;;;;20.65;9.45;;;1.50;99.90;;;;;;5055094;28;20056;-77
2023/03/08 03:56:14;;;;;;;18.08;9.10;;;1.60;99.90;;;;;;5054682;28;20382;-78
2023/03/08 03:58:40;;;;;;;21.30;9.67;;;1.60;99.90;;;;;;5072262;28;20020;-77
2023/03/08 04:01:20;;;;;;;23.05;8.65;;;1.50;99.90;;;;;;5054982;28;20285;-77
2023/03/08 04:03:47;;;;;;;19.40;9.30;;;1.40;99.90;;;;;;5072658;28;20089;-77
2023/03/08 04:06:18;;;;;;;18.58;8.80;;;1.40;99.90;;;;;;5054560;28;20492;-77
2023/03/08 04:08:44;;;;;;;19.23;9.52;;;1.50;99.90;;;;;;5054229;28;20028;-77
2023/03/08 04:11:11;;;;;;;19.55;9.65;;;1.40;99.90;;;;;;5073564;28;20104;-77
2023/03/08 04:13:38;;;;;;;21.92;9.68;;;1.40;99.90;;;;;;5072580;28;20024;-77
2023/03/08 04:16:15;;;;;;;18.02;8.70;;;1.40;99.90;;;;;;5054079;28;20185;-77
2023/03/08 04:18:41;;;;;;;21.92;9.38;;;1.40;99.90;;;;;;5054207;28;20020;-77
2023/03/08 04:21:08;;;;;;;17.58;8.75;;;1.50;99.90;;;;;;5054534;28;20074;-77
2023/03/08 04:23:34;;;;;;;16.85;7.88;;;1.40;99.90;;;;;;5054455;28;20024;-77
2023/03/08 04:26:00;;;;;;;15.70;9.05;;;1.30;99.90;;;;;;5054180;28;20024;-77
2023/03/08 04:28:26;;;;;;;17.95;8.32;;;1.30;99.90;;;;;;5054117;28;20115;-77
2023/03/08 04:30:52;;;;;;;19.88;10.32;;;1.40;99.90;;;;;;5072439;28;20109;-78
2023/03/08 04:33:17;;;;;;;19.10;9.55;;;1.40;99.90;;;;;;5072294;28;20035;-77
2023/03/08 04:35:43;;;;;;;19.52;9.57;;;1.30;99.90;;;;;;5054481;28;20025;-77
2023/03/08 04:38:09;;;;;;;22.05;9.50;;;1.50;99.90;;;;;;5053780;28;20119;-77
2023/03/08 04:41:00;;;;;;;17.58;8.18;;;1.40;99.90;;;;;;5070423;28;20027;-78
2023/03/08 04:43:23;;;;;;;18.08;9.68;;;1.40;99.90;;;;;;5071105;28;20374;-77
2023/03/08 04:45:48;;;;;;;20.10;8.75;;;1.30;99.90;;;;;;5053633;28;20032;-77
2023/03/08 04:48:14;;;;;;;19.17;9.20;;;1.30;99.90;;;;;;5053772;28;20034;-77
2023/03/08 04:50:40;;;;;;;29.95;9.93;;;1.30;99.90;;;;;;5054197;28;20117;-77
2023/03/08 04:53:07;;;;;;;18.13;8.82;;;1.20;99.90;;;;;;5071879;28;20481;-77
2023/03/08 04:55:33;;;;;;;22.30;9.75;;;1.20;99.90;;;;;;5053331;28;20028;-77
2023/03/08 04:57:58;;;;;;;19.05;9.05;;;1.40;99.90;;;;;;5053574;28;20020;-77
2023/03/08 05:00:24;;;;;;;18.45;9.10;;;1.20;99.90;;;;;;5070695;28;20435;-78
2023/03/08 05:02:50;;;;;;;16.00;8.40;;;1.10;99.90;;;;;;5070417;28;20017;-77
2023/03/08 05:05:15;;;;;;;21.25;9.75;;;1.10;99.90;;;;;;5070339;28;20052;-77
2023/03/08 05:07:41;;;;;;;17.80;9.10;;;1.30;99.90;;;;;;5053380;28;20523;-77
2023/03/08 05:10:07;;;;;;;17.30;8.60;;;1.10;99.90;;;;;;5054081;28;20028;-76
2023/03/08 05:12:33;;;;;;;18.08;8.98;;;1.10;99.90;;;;;;5053772;28;20071;-77
2023/03/08 05:14:58;;;;;;;17.90;9.20;;;1.10;99.90;;;;;;5070309;28;20070;-77
2023/03/08 05:17:24;;;;;;;15.77;7.70;;;1.20;99.90;;;;;;5053250;28;20024;-77
2023/03/08 05:19:50;;;;;;;13.63;7.43;;;1.00;99.90;;;;;;5071143;28;20025;-77
2023/03/08 05:22:15;;;;;;;13.20;7.47;;;0.90;99.90;;;;;;5071343;28;20488;-77
2023/03/08 05:24:41;;;;;;;20.20;9.57;;;1.20;99.90;;;;;;5053472;28;20032;-77
2023/03/08 05:27:07;;;;;;;17.75;9.27;;;1.00;99.90;;;;;;5071724;28;20032;-77
2023/03/08 05:29:35;;;;;;;17.75;8.48;;;0.80;99.90;;;;;;5064258;28;20031;-78
2023/03/08 05:32:01;;;;;;;20.88;9.75;;;0.70;99.90;;;;;;5082775;28;20024;-78
2023/03/08 05:34:28;;;;;;;15.52;8.10;;;0.60;99.90;;;;;;5083669;28;20033;-78
2023/03/08 05:36:53;;;;;;;17.02;9.57;;;0.60;99.90;;;;;;5072927;28;20096;-77
2023/03/08 05:39:19;;;;;;;20.15;10.05;;;0.60;99.90;;;;;;5053142;28;20234;-77
2023/03/08 05:41:45;;;;;;;16.90;8.55;;;0.60;99.90;;;;;;5052800;28;20025;-77
2023/03/08 05:44:10;;;;;;;21.20;10.38;;;2.10;99.90;;;;;;5072626;28;20108;-77
2023/03/08 05:46:39;;;;;;;22.95;10.13;;;1.50;99.90;;;;;;5053742;28;20393;-76
2023/03/08 05:49:05;;;;;;;18.38;9.20;;;1.20;99.90;;;;;;5053623;28;20510;-78
2023/03/08 05:51:31;;;;;;;19.83;10.25;;;1.60;99.90;;;;;;5070389;28;20025;-77
2023/03/08 05:53:56;;;;;;;19.13;9.10;;;1.00;99.90;;;;;;5053587;28;20035;-77
2023/03/08 05:56:23;;;;;;;15.93;9.32;;;1.00;99.90;;;;;;5053226;28;20130;-77
2023/03/08 05:58:50;;;;;;;21.02;9.85;;;1.50;99.90;;;;;;5052946;28;20025;-77
2023/03/08 06:01:24;;;;;;;15.18;8.13;;;0.90;99.90;;;;;;5071241;28;20024;-77
2023/03/08 06:03:55;;;;;;;17.80;9.13;;;0.90;99.90;;;;;;5053196;28;20024;-77
2023/03/08 06:06:23;;;;;;;22.33;9.52;;;0.90;99.90;;;;;;5052960;28;20025;-77
2023/03/08 06:08:48;;;;;;;17.38;9.05;;;0.80;99.90;;;;;;5070768;28;20055;-77
2023/03/08 06:11:15;;;;;;;19.25;10.18;;;1.00;99.90;;;;;;5053381;28;20449;-77
2023/03/08 06:13:40;;;;;;;20.65;9.40;;;1.10;99.90;;;;;;5057149;28;20116;-77
2023/03/08 06:16:07;;;;;;;19.58;9.73;;;0.80;99.90;;;;;;5086856;28;20035;-78
2023/03/08 06:18:34;;;;;;;19.23;9.10;;;0.80;99.90;;;;;;5070924;28;20037;-77
2023/03/08 06:21:03;;;;;;;17.73;8.35;;;0.70;99.90;;;;;;5082585;28;20031;-76
2023/03/08 06:23:30;;;;;;;17.20;9.50;;;0.80;99.90;;;;;;5057112;28;20489;-77
2023/03/08 06:25:57;;;;;;;18.58;9.13;;;0.90;99.90;;;;;;5056291;28;20033;-77
2023/03/08 06:28:24;;;;;;;20.38;10.15;;;0.90;99.90;;;;;;5056504;28;20059;-76
2023/03/08 06:30:50;;;;;;;25.25;11.35;;;0.90;99.90;;;;;;5055371;28;20020;-77
2023/03/08 06:33:17;;;;;;;20.52;9.25;;;1.00;99.90;;;;;;5056321;28;20177;-77
2023/03/08 06:35:43;;;;;;;20.15;9.68;;;1.20;99.90;;;;;;5055411;28;20032;-77
2023/03/08 06:38:09;;;;;;;19.73;11.25;;;1.20;99.90;;;;;;5055902;28;20033;-77
2023/03/08 06:40:35;;;;;;;20.65;10.73;;;1.20;99.90;;;;;;5074007;28;20036;-77
2023/03/08 06:43:01;;;;;;;19.30;9.80;;;1.30;99.90;;;;;;5056385;28;20048;-77
2023/03/08 06:45:27;;;;;;;20.40;10.02;;;1.30;99.90;;;;;;5056078;28;20500;-77
2023/03/08 06:47:52;;;;;;;23.20;9.43;;;1.40;99.90;;;;;;5055982;28;20131;-78
2023/03/08 06:50:18;;;;;;;21.75;10.15;;;1.40;99.90;;;;;;5074301;28;20074;-77
2023/03/08 06:52:44;;;;;;;20.17;9.20;;;1.50;99.90;;;;;;5056239;28;20120;-78
2023/03/08 06:55:10;;;;;;;21.50;10.98;;;1.60;99.90;;;;;;5055781;28;20055;-76
2023/03/08 06:57:35;;;;;;;20.85;9.65;;;1.70;99.90;;;;;;5073848;28;20024;-77
2023/03/08 07:00:02;;;;;;;22.73;10.88;;;1.80;99.90;;;;;;5056705;28;20393;-77
2023/03/08 07:02:28;;;;;;;25.40;10.93;;;1.80;99.90;;;;;;5074762;28;20016;-77
2023/03/08 07:04:53;;;;;;;21.40;11.35;;;1.70;99.90;;;;;;5072468;28;20032;-77
2023/03/08 07:07:19;;;;;;;20.20;10.10;;;1.80;99.90;;;;;;5072260;28;20029;-77
2023/03/08 07:09:45;;;;;;;21.50;11.45;;;1.90;99.90;;;;;;5073958;28;20029;-77
2023/03/08 07:12:10;;;;;;;23.30;10.98;;;2.00;99.90;;;;;;5056033;28;20036;-77
2023/03/08 07:14:36;;;;;;;21.35;10.95;;;2.10;99.90;;;;;;5055416;28;20025;-77
2023/03/08 07:17:01;;;;;;;18.70;10.05;;;2.20;99.90;;;;;;5055600;28;20031;-78
2023/03/08 07:19:27;;;;;;;19.15;8.93;;;2.30;99.90;;;;;;5073239;28;20027;-77
2023/03/08 07:21:53;;;;;;;20.17;11.30;;;2.40;99.90;;;;;;5073743;28;20107;-77
2023/03/08 07:24:18;;;;;;;22.33;11.07;;;2.50;99.90;;;;;;5055437;28;20127;-76
2023/03/08 07:26:44;;;;;;;21.38;11.02;;;2.70;99.90;;;;;;5055047;28;20030;-77
2023/03/08 07:29:09;;;;;;;24.90;10.07;;;2.80;99.90;;;;;;5073124;28;20048;-77
2023/03/08 07:31:35;;;;;;;19.00;10.43;;;2.80;99.90;;;;;;5055579;28;20020;-77
2023/03/08 07:34:04;;;;;;;25.20;12.18;;;3.10;99.90;;;;;;5055671;28;20051;-77
2023/03/08 07:36:29;;;;;;;29.52;12.88;;;4.00;99.90;;;;;;5072982;28;20024;-77
2023/03/08 07:38:55;;;;;;;21.05;11.25;;;4.00;99.90;;;;;;5054839;28;20032;-77
2023/03/08 07:41:21;;;;;;;21.95;11.77;;;4.00;99.90;;;;;;5073342;28;20032;-77
2023/03/08 07:43:46;;;;;;;22.50;9.45;;;4.00;99.90;;;;;;5055589;28;20020;-77
2023/03/08 07:46:13;;;;;;;25.70;10.82;;;3.90;99.90;;;;;;5055039;28;20025;-78
2023/03/08 07:48:38;;;;;;;25.17;10.88;;;4.00;99.90;;;;;;5054963;28;20524;-77
2023/03/08 07:51:08;;;;;;;23.67;10.50;;;4.10;99.90;;;;;;5073133;28;20174;-77
2023/03/08 07:53:34;;;;;;;22.27;10.00;;;4.30;99.90;;;;;;5053357;28;20029;-77
2023/03/08 07:56:00;;;;;;;104.50;17.45;;;4.40;99.90;;;;;;5055120;28;20029;-77
2023/03/08 07:58:27;;;;;;;28.58;13.23;;;5.30;99.90;;;;;;5072212;28;20031;-76
2023/03/08 08:00:53;;;;;;;24.38;12.80;;;6.00;99.90;;;;;;5055358;28;20025;-78
2023/03/08 08:03:19;;;;;;;21.83;12.07;;;6.00;99.90;;;;;;5055154;28;20519;-77
2023/03/08 08:05:45;;;;;;;25.67;12.05;;;6.00;99.90;;;;;;5072509;28;20016;-77
2023/03/08 08:08:12;;;;;;;25.20;11.40;;;5.90;99.90;;;;;;5054136;28;20362;-77
2023/03/08 08:10:38;;;;;;;22.00;10.60;;;5.90;99.90;;;;;;5072673;28;20020;-77
2023/03/08 08:13:04;;;;;;;19.23;10.73;;;6.00;99.90;;;;;;5054750;28;20029;-77
2023/03/08 08:15:30;;;;;;;22.58;12.38;;;6.30;99.90;;;;;;5054360;28;20028;-77
2023/03/08 08:17:56;;;;;;;21.23;11.70;;;7.00;99.90;;;;;;5072245;28;20103;-77
2023/03/08 08:20:21;;;;;;;24.75;12.55;;;7.00;99.90;;;;;;5072639;28;20077;-78
2023/03/08 08:22:50;;;;;;;25.08;12.77;;;7.10;99.90;;;;;;5054239;28;20025;-77
2023/03/08 08:25:16;;;;;;;19.65;10.68;;;7.10;99.90;;;;;;5054250;28;20051;-78
2023/03/08 08:27:42;;;;;;;22.23;12.55;;;7.10;99.90;;;;;;5054131;28;20048;-77
2023/03/08 08:30:08;;;;;;;18.63;11.32;;;7.20;99.90;;;;;;5054580;28;20031;-77
2023/03/08 08:32:34;;;;;;;21.25;12.95;;;7.20;99.90;;;;;;5054393;28;20029;-77
2023/03/08 08:35:00;;;;;;;21.27;11.10;;;7.20;99.90;;;;;;5053899;28;20024;-77
2023/03/08 08:37:26;;;;;;;19.15;10.10;;;7.30;99.90;;;;;;5053193;28;20703;-77
2023/03/08 08:39:51;;;;;;;18.60;9.80;;;7.30;99.90;;;;;;5063179;23;20049;-76
2023/03/08 08:42:17;;;;;;;22.35;10.70;;;7.20;99.90;;;;;;5052965;28;20021;-76
2023/03/08 08:44:43;;;;;;;18.73;10.32;;;7.30;99.90;;;;;;5051925;28;20041;-75
2023/03/08 08:47:08;;;;;;;20.40;11.32;;;7.40;99.90;;;;;;5051748;28;20041;-75
2023/03/08 08:49:34;;;;;;;20.80;10.13;;;7.40;99.90;;;;;;5049109;28;20021;-76
2023/03/08 08:52:00;;;;;;;16.38;8.60;;;7.50;99.90;;;;;;5060958;28;20021;-75
2023/03/08 08:54:25;;;;;;;22.23;9.93;;;7.50;99.90;;;;;;5060272;28;20029;-75
2023/03/08 08:56:51;;;;;;;14.07;7.78;;;7.50;99.90;;;;;;5060243;28;20040;-78
2023/03/08 08:59:16;;;;;;;21.88;9.30;;;7.60;99.90;;;;;;5060863;28;20490;-77
2023/03/08 09:01:42;;;;;;;17.90;8.77;;;7.60;99.90;;;;;;5061356;28;20025;-75
2023/03/08 09:04:12;;;;;;;15.50;9.40;;;7.50;99.90;;;;;;5061230;28;20021;-76
2023/03/08 09:06:38;;;;;;;16.27;8.98;;;7.50;99.90;;;;;;5061052;28;20032;-74
2023/03/08 09:09:05;;;;;;;18.42;8.52;;;7.60;99.90;;;;;;5060313;28;20025;-76
2023/03/08 09:11:31;;;;;;;16.00;8.50;;;7.60;99.90;;;;;;5057615;28;20100;-75
2023/03/08 09:13:57;;;;;;;19.13;8.50;;;7.60;99.90;;;;;;5057166;28;20516;-75
2023/03/08 09:16:31;;;;;;;18.17;8.32;;;7.70;99.90;;;;;;5055520;28;20029;-76
2023/03/08 09:18:58;;;;;;;17.92;8.55;;;7.80;99.90;;;;;;5056636;28;20091;-76
2023/03/08 09:21:25;;;;;;;17.35;10.55;;;7.80;99.90;;;;;;5057020;28;20092;-75
2023/03/08 09:23:51;;;;;;;15.80;8.02;;;7.90;99.90;;;;;;5055029;28;20021;-75
2023/03/08 09:26:17;;;;;;;19.42;8.35;;;8.00;99.90;;;;;;5056409;28;20033;-76
2023/03/08 09:28:43;;;;;;;20.13;9.63;;;8.10;99.90;;;;;;5056420;28;20453;-77
2023/03/08 09:31:15;;;;;;;21.73;10.30;;;8.20;99.90;;;;;;5056832;28;20068;-78
2023/03/08 09:33:47;;;;;;;20.60;11.82;;;8.30;99.90;;;;;;5056506;28;20025;-74
2023/03/08 09:36:13;;;;;;;17.52;9.13;;;8.30;99.90;;;;;;5054303;28;20033;-77
2023/03/08 09:38:39;;;;;;;18.40;9.32;;;8.30;99.90;;;;;;5054101;28;20043;-76
2023/03/08 09:41:20;;;;;;;21.10;9.43;;;8.30;99.90;;;;;;5054721;28;20025;-75
2023/03/08 09:44:16;;;;;;;13.27;7.70;;;8.40;99.90;;;;;;5052618;28;20485;-75
2023/03/08 09:46:53;;;;;;;16.35;8.75;;;8.30;99.90;;;;;;5052582;28;20033;-74
2023/03/08 09:49:27;;;;;;;15.98;8.52;;;8.40;99.90;;;;;;5052995;28;20044;-75
2023/03/08 09:52:03;;;;;;;14.25;9.45;;;8.40;99.90;;;;;;5056159;28;20025;-74
2023/03/08 09:54:32;;;;;;;20.45;12.20;;;8.40;99.90;;;;;;5056233;28;20029;-74
2023/03/08 09:57:01;;;;;;;18.63;9.32;;;8.40;99.90;;;;;;5057406;28;20025;-75
2023/03/08 09:59:33;;;;;;;21.70;8.65;;;8.40;99.90;;;;;;5056865;28;20021;-75
2023/03/08 10:02:30;;;;;;;17.25;8.77;;;8.40;99.90;;;;;;5057297;28;20029;-75
2023/03/08 10:05:08;;;;;;;16.55;8.70;;;8.30;99.90;;;;;;5055197;28;20520;-75
2023/03/08 10:08:12;;;;;;;21.77;7.63;;;8.30;99.90;;;;;;5056211;28;20512;-75
2023/03/08 10:11:00;;;;;;;14.68;7.47;;;8.30;99.90;;;;;;5044511;28;20037;-74
2023/03/08 10:13:36;;;;;;;20.92;8.32;;;8.30;99.90;;;;;;5056333;28;20017;-74
2023/03/08 10:16:47;;;;;;;17.15;8.95;;;8.40;99.90;;;;;;5055412;28;20460;-74
2023/03/08 10:19:34;;;;;;;16.60;7.93;;;8.50;99.90;;;;;;4997508;28;20053;-75
2023/03/08 10:22:07;;;;;;;16.02;8.63;;;8.50;99.90;;;;;;5014364;28;20422;-74
2023/03/08 10:24:44;;;;;;;19.50;10.32;;;8.70;99.90;;;;;;5036500;28;20482;-74
2023/03/08 10:27:23;;;;;;;15.52;8.48;;;8.80;99.90;;;;;;5055752;28;20029;-75
2023/03/08 10:29:51;;;;;;;17.25;9.95;;;8.70;99.90;;;;;;5054314;28;20060;-74
2023/03/08 10:32:17;;;;;;;16.58;8.68;;;8.70;99.90;;;;;;5055638;28;20458;-74
2023/03/08 10:34:43;;;;;;;19.42;8.23;;;8.70;99.90;;;;;;5054956;28;20056;-76
2023/03/08 10:37:08;;;;;;;13.60;8.35;;;8.80;99.90;;;;;;5053711;28;20115;-75
2023/03/08 10:39:51;;;;;;;16.35;7.80;;;8.80;99.90;;;;;;5053481;28;20112;-77
2023/03/08 10:42:20;;;;;;;16.85;8.85;;;8.70;99.90;;;;;;5053538;28;20043;-75
2023/03/08 10:44:53;;;;;;;17.05;9.15;;;8.80;99.90;;;;;;5054798;28;20397;-75
2023/03/08 10:47:24;;;;;;;15.98;8.10;;;8.80;99.90;;;;;;5054913;28;20390;-75
2023/03/08 10:50:08;;;;;;;23.15;9.07;;;8.80;99.90;;;;;;5053719;28;20025;-74
2023/03/08 10:52:34;;;;;;;15.45;7.90;;;8.80;99.90;;;;;;5053557;28;20025;-75
2023/03/08 10:55:09;;;;;;;16.30;8.32;;;8.90;99.90;;;;;;5054510;28;20401;-75
2023/03/08 10:57:36;;;;;;;20.15;9.23;;;9.00;99.90;;;;;;5053560;28;20025;-73
2023/03/08 11:00:28;;;;;;;14.15;8.30;;;9.00;99.90;;;;;;5054520;28;20029;-74
2023/03/08 11:03:18;;;;;;;16.27;8.00;;;9.10;99.90;;;;;;5053399;28;20082;-75
2023/03/08 11:05:57;;;;;;;20.48;9.02;;;9.30;99.90;;;;;;5055796;28;20474;-75
2023/03/08 11:08:51;;;;;;;19.30;9.52;;;9.20;99.90;;;;;;5056246;28;20036;-75
2023/03/08 11:11:17;;;;;;;23.40;10.38;;;9.20;99.90;;;;;;5051541;28;20044;-74
2023/03/08 11:13:45;;;;;;;19.75;10.07;;;9.30;99.90;;;;;;5056150;28;20021;-74
2023/03/08 11:16:23;;;;;;;19.70;11.13;;;9.40;99.90;;;;;;5054986;28;20078;-75
2023/03/08 11:19:28;;;;;;;19.23;8.93;;;9.40;99.90;;;;;;5053598;28;20527;-75
2023/03/08 11:22:19;;;;;;;22.88;9.85;;;9.40;99.90;;;;;;5054782;28;20025;-78
2023/03/08 11:25:02;;;;;;;20.50;9.82;;;9.50;99.90;;;;;;5054326;28;20053;-77
2023/03/08 11:27:37;;;;;;;17.65;9.60;;;9.50;99.90;;;;;;5053853;28;20099;-77
2023/03/08 11:30:11;;;;;;;16.90;9.30;;;9.60;99.90;;;;;;5054048;28;20067;-79
2023/03/08 11:32:55;;;;;;;17.70;9.65;;;9.70;99.90;;;;;;5054227;28;20040;-77
2023/03/08 11:35:47;;;;;;;17.98;9.02;;;9.70;99.90;;;;;;5053533;28;20033;-75
2023/03/08 11:38:23;;;;;;;21.70;9.52;;;9.80;99.90;;;;;;5053456;28;20032;-74
2023/03/08 11:40:57;;;;;;;17.58;9.00;;;9.90;99.90;;;;;;5053863;28;20025;-74
2023/03/08 11:43:54;;;;;;;17.15;9.20;;;9.70;99.90;;;;;;5052760;28;20025;-75
2023/03/08 11:46:49;;;;;;;17.33;7.63;;;9.70;99.90;;;;;;5051961;28;20033;-75
2023/03/08 11:49:20;;;;;;;19.70;8.63;;;9.70;99.90;;;;;;5033596;28;20043;-75
2023/03/08 11:51:57;;;;;;;18.70;7.88;;;9.80;99.90;;;;;;5053923;28;20033;-74
2023/03/08 11:54:41;;;;;;;15.07;8.05;;;9.90;99.90;;;;;;5053335;28;20505;-77
2023/03/08 11:57:11;;;;;;;16.38;7.97;;;9.80;99.90;;;;;;5053715;28;20143;-74
2023/03/08 11:59:49;;;;;;;13.27;8.55;;;9.90;99.90;;;;;;5051581;28;20021;-74
2023/03/08 12:02:27;;;;;;;14.38;9.15;;;10.00;99.90;;;;;;5051925;28;20029;-75
2023/03/08 12:05:17;;;;;;;13.10;8.40;;;10.20;99.90;;;;;;5051855;28;20028;-74
2023/03/08 12:07:51;;;;;;;17.85;7.93;;;10.20;99.90;;;;;;5052932;28;20025;-75
2023/03/08 12:10:41;;;;;;;14.18;8.02;;;10.30;99.90;;;;;;5053340;28;20105;-74
2023/03/08 12:13:33;;;;;;;14.30;7.82;;;10.30;99.90;;;;;;5052631;28;20036;-75
2023/03/08 12:16:24;;;;;;;14.32;7.63;;;10.50;99.90;;;;;;5052891;28;20034;-74
2023/03/08 12:19:19;;;;;;;15.68;8.32;;;10.70;99.70;;;;;;5032694;28;20037;-74
2023/03/08 12:22:09;;;;;;;12.35;7.93;;;10.70;98.90;;;;;;5053149;28;20044;-73
2023/03/08 12:24:49;;;;;;;14.35;7.75;;;10.70;99.70;;;;;;5051599;28;20025;-74
2023/03/08 12:27:31;;;;;;;13.98;7.88;;;10.80;99.90;;;;;;5051515;28;20025;-75
2023/03/08 12:30:02;;;;;;;15.23;7.43;;;10.80;99.90;;;;;;5053018;28;20032;-74
2023/03/08 12:32:29;;;;;;;12.98;7.70;;;10.90;99.80;;;;;;5052647;28;20025;-75
2023/03/08 12:35:29;;;;;;;12.35;8.10;;;11.10;99.40;;;;;;5052689;28;20105;-74
2023/03/08 12:38:25;;;;;;;9.73;7.15;;;10.90;99.00;;;;;;5018975;28;20493;-75
2023/03/08 12:40:53;;;;;;;17.70;8.07;;;11.10;98.50;;;;;;5036797;28;20109;-75
2023/03/08 12:43:18;;;;;;;16.15;8.23;;;11.10;98.70;;;;;;5053033;28;20140;-75
2023/03/08 12:46:00;;;;;;;14.48;7.25;;;10.90;98.80;;;;;;5052713;28;20057;-75
2023/03/08 12:48:36;;;;;;;13.00;8.00;;;11.10;98.70;;;;;;5052504;28;20025;-74
2023/03/08 12:51:10;;;;;;;26.65;8.35;;;11.20;98.10;;;;;;5053480;28;20381;-75
2023/03/08 12:53:38;;;;;;;12.27;6.93;;;11.10;98.00;;;;;;5053340;28;20025;-73
2023/03/08 12:56:09;;;;;;;17.25;10.43;;;11.20;98.50;;;;;;5051618;28;20159;-74